createdAt,value
2018-03-01T00:00:04.108Z,0.00
2018-03-01T00:01:04.144Z,0.00
2018-03-01T00:02:04.128Z,0.00
2018-03-01T00:03:04.135Z,0.00
2018-03-01T00:04:04.145Z,0.00
2018-03-01T00:05:04.152Z,0.00
2018-03-01T00:06:04.159Z,0.00
2018-03-01T00:07:04.168Z,0.00
2018-03-01T00:08:04.170Z,0.00
2018-03-01T00:09:04.172Z,0.00
2018-03-01T00:10:04.187Z,0.00
2018-03-01T00:11:04.191Z,0.00
2018-03-01T00:12:04.202Z,0.00
2018-03-01T00:13:04.203Z,0.00
2018-03-01T00:14:04.195Z,0.00
2018-03-01T00:15:04.215Z,0.00
2018-03-01T00:16:04.225Z,0.00
2018-03-01T00:17:04.234Z,0.00
2018-03-01T00:18:04.236Z,0.00
2018-03-01T00:19:04.292Z,0.00
2018-03-01T00:20:04.289Z,0.00
2018-03-01T00:21:04.247Z,0.00
2018-03-01T00:22:04.260Z,0.00
2018-03-01T00:23:04.273Z,0.00
2018-03-01T00:24:04.274Z,0.00
2018-03-01T00:25:04.283Z,0.00
2018-03-01T00:26:04.271Z,0.00
2018-03-01T00:27:04.285Z,0.00
2018-03-01T00:28:04.318Z,0.00
2018-03-01T00:29:04.293Z,0.00
2018-03-01T00:30:04.296Z,0.00
2018-03-01T00:31:04.310Z,0.00
2018-03-01T00:32:04.328Z,0.00
2018-03-01T00:33:04.332Z,0.00
2018-03-01T00:34:04.349Z,0.00
2018-03-01T00:35:04.331Z,0.00
2018-03-01T00:36:04.353Z,0.00
2018-03-01T00:37:04.358Z,0.00
2018-03-01T00:38:04.370Z,0.00
2018-03-01T00:39:04.365Z,0.00
2018-03-01T00:40:04.374Z,0.00
2018-03-01T00:41:04.387Z,0.00
2018-03-01T00:42:04.392Z,0.00
2018-03-01T00:43:04.406Z,0.00
2018-03-01T00:44:04.387Z,0.00
2018-03-01T00:45:04.408Z,0.00
2018-03-01T00:46:04.397Z,0.00
2018-03-01T00:47:04.409Z,0.00
2018-03-01T00:48:04.423Z,0.00
2018-03-01T00:49:04.431Z,0.00
2018-03-01T00:50:04.427Z,0.00
2018-03-01T00:51:04.434Z,0.00
2018-03-01T00:52:04.446Z,0.00
2018-03-01T00:53:04.449Z,0.00
2018-03-01T00:54:04.496Z,0.00
2018-03-01T00:55:04.473Z,0.00
2018-03-01T00:56:04.461Z,0.00
2018-03-01T00:57:04.479Z,0.00
2018-03-01T00:58:04.486Z,0.00
2018-03-01T00:59:04.488Z,0.00
2018-03-01T01:00:04.491Z,0.00
2018-03-01T01:01:04.511Z,0.00
2018-03-01T01:02:04.496Z,0.00
2018-03-01T01:03:04.516Z,0.00
2018-03-01T01:04:04.534Z,0.00
2018-03-01T01:05:04.543Z,0.00
2018-03-01T01:06:04.559Z,0.00
2018-03-01T01:07:04.544Z,0.00
2018-03-01T01:08:04.547Z,0.00
2018-03-01T01:09:04.569Z,0.00
2018-03-01T01:10:04.551Z,0.00
2018-03-01T01:11:04.558Z,0.00
2018-03-01T01:12:04.573Z,0.00
2018-03-01T01:13:04.594Z,0.00
2018-03-01T01:14:04.590Z,0.00
2018-03-01T01:15:04.610Z,0.00
2018-03-01T01:16:04.589Z,0.00
2018-03-01T01:17:04.653Z,0.00
2018-03-01T01:18:04.619Z,0.00
2018-03-01T01:19:04.613Z,0.00
2018-03-01T01:20:04.611Z,0.00
2018-03-01T01:21:04.631Z,0.00
2018-03-01T01:22:04.661Z,0.00
2018-03-01T01:23:04.636Z,0.00
2018-03-01T01:24:04.642Z,0.00
2018-03-01T01:25:04.747Z,0.00
2018-03-01T01:26:04.663Z,0.00
2018-03-01T01:27:04.673Z,0.00
2018-03-01T01:28:04.693Z,0.00
2018-03-01T01:29:04.677Z,0.00
2018-03-01T01:30:04.685Z,0.00
2018-03-01T01:31:04.685Z,0.00
2018-03-01T01:32:04.710Z,0.00
2018-03-01T01:33:04.727Z,0.00
2018-03-01T01:34:04.701Z,0.00
2018-03-01T01:35:04.706Z,0.00
2018-03-01T01:36:04.714Z,0.00
2018-03-01T01:37:04.728Z,0.00
2018-03-01T01:38:04.731Z,0.00
2018-03-01T01:39:04.751Z,0.00
2018-03-01T01:40:04.748Z,0.00
2018-03-01T01:41:04.770Z,0.00
2018-03-01T01:42:04.761Z,0.00
2018-03-01T01:43:04.766Z,0.00
2018-03-01T01:44:04.771Z,0.00
2018-03-01T01:45:04.780Z,0.00
2018-03-01T01:46:04.816Z,0.00
2018-03-01T01:47:04.786Z,0.00
2018-03-01T01:48:04.792Z,0.00
2018-03-01T01:49:04.796Z,0.00
2018-03-01T01:50:04.818Z,0.00
2018-03-01T01:51:04.822Z,0.00
2018-03-01T01:52:04.816Z,0.00
2018-03-01T01:53:04.839Z,0.00
2018-03-01T01:54:04.834Z,0.00
2018-03-01T01:55:04.875Z,0.00
2018-03-01T01:56:04.854Z,0.00
2018-03-01T01:57:04.846Z,0.00
2018-03-01T01:58:04.850Z,0.00
2018-03-01T01:59:04.861Z,0.00
2018-03-01T02:00:04.866Z,0.00
2018-03-01T02:01:04.867Z,0.00
2018-03-01T02:02:04.906Z,0.00
2018-03-01T02:03:04.888Z,0.00
2018-03-01T02:04:04.908Z,0.00
2018-03-01T02:05:04.901Z,0.00
2018-03-01T02:06:04.899Z,0.00
2018-03-01T02:07:04.907Z,0.00
2018-03-01T02:08:04.917Z,0.00
2018-03-01T02:09:04.926Z,0.00
2018-03-01T02:10:04.948Z,0.00
2018-03-01T02:11:04.934Z,0.00
2018-03-01T02:12:04.937Z,0.00
2018-03-01T02:13:04.942Z,0.00
2018-03-01T02:14:04.952Z,0.00
2018-03-01T02:15:04.976Z,0.00
2018-03-01T02:16:04.977Z,0.00
2018-03-01T02:17:04.978Z,0.00
2018-03-01T02:18:04.970Z,0.00
2018-03-01T02:19:05.009Z,0.00
2018-03-01T02:20:04.993Z,0.00
2018-03-01T02:21:05.010Z,0.00
2018-03-01T02:22:05.002Z,0.00
2018-03-01T02:23:05.024Z,0.00
2018-03-01T02:24:05.014Z,0.00
2018-03-01T02:25:05.020Z,0.00
2018-03-01T02:26:05.025Z,0.00
2018-03-01T02:27:05.030Z,0.00
2018-03-01T02:28:05.039Z,0.00
2018-03-01T02:29:05.046Z,0.00
2018-03-01T02:30:05.057Z,0.00
2018-03-01T02:31:05.070Z,0.00
2018-03-01T02:32:05.107Z,0.00
2018-03-01T02:33:05.075Z,0.00
2018-03-01T02:34:05.091Z,0.00
2018-03-01T02:35:05.096Z,0.00
2018-03-01T02:36:05.087Z,0.00
2018-03-01T02:37:05.096Z,0.00
2018-03-01T02:38:05.131Z,0.00
2018-03-01T02:39:05.113Z,0.00
2018-03-01T02:40:05.112Z,0.00
2018-03-01T02:41:05.140Z,0.00
2018-03-01T02:42:05.126Z,0.00
2018-03-01T02:43:05.145Z,0.00
2018-03-01T02:44:05.147Z,0.00
2018-03-01T02:45:05.143Z,0.00
2018-03-01T02:46:05.173Z,0.00
2018-03-01T02:47:05.161Z,0.00
2018-03-01T02:48:05.162Z,0.00
2018-03-01T02:49:05.169Z,0.00
2018-03-01T02:50:05.192Z,0.00
2018-03-01T02:51:05.183Z,0.00
2018-03-01T02:52:05.196Z,0.00
2018-03-01T02:53:05.239Z,0.00
2018-03-01T02:54:05.203Z,0.00
2018-03-01T02:55:05.212Z,0.00
2018-03-01T02:56:05.237Z,0.00
2018-03-01T02:57:05.223Z,0.00
2018-03-01T02:58:05.223Z,0.00
2018-03-01T02:59:05.295Z,0.00
2018-03-01T03:00:05.270Z,0.00
2018-03-01T03:01:05.247Z,0.00
2018-03-01T03:02:05.269Z,0.00
2018-03-01T03:03:05.271Z,0.00
2018-03-01T03:04:05.263Z,0.00
2018-03-01T03:05:05.274Z,0.00
2018-03-01T03:06:05.299Z,0.00
2018-03-01T03:07:05.295Z,0.00
2018-03-01T03:08:05.292Z,0.00
2018-03-01T03:09:05.299Z,0.00
2018-03-01T03:10:05.325Z,0.00
2018-03-01T03:11:05.330Z,0.00
2018-03-01T03:12:05.339Z,0.00
2018-03-01T03:13:05.326Z,0.00
2018-03-01T03:14:05.332Z,0.00
2018-03-01T03:15:05.350Z,0.00
2018-03-01T03:16:05.345Z,0.00
2018-03-01T03:17:05.350Z,0.00
2018-03-01T03:18:05.368Z,0.00
2018-03-01T03:19:05.359Z,0.00
2018-03-01T03:20:05.416Z,0.00
2018-03-01T03:21:05.367Z,0.00
2018-03-01T03:22:05.383Z,0.00
2018-03-01T03:23:05.421Z,0.00
2018-03-01T03:24:05.417Z,0.00
2018-03-01T03:25:05.423Z,0.00
2018-03-01T03:26:05.404Z,0.00
2018-03-01T03:27:05.443Z,0.00
2018-03-01T03:28:05.424Z,0.00
2018-03-01T03:29:05.419Z,0.00
2018-03-01T03:30:05.436Z,0.00
2018-03-01T03:31:05.443Z,0.00
2018-03-01T03:32:05.450Z,0.00
2018-03-01T03:33:05.448Z,0.00
2018-03-01T03:34:05.460Z,0.00
2018-03-01T03:35:05.466Z,0.00
2018-03-01T03:36:05.463Z,0.00
2018-03-01T03:37:05.476Z,0.00
2018-03-01T03:38:05.484Z,0.00
2018-03-01T03:39:05.503Z,0.00
2018-03-01T03:40:05.524Z,0.00
2018-03-01T03:41:05.500Z,0.00
2018-03-01T03:42:05.502Z,0.00
2018-03-01T03:43:05.536Z,0.00
2018-03-01T03:44:05.554Z,0.00
2018-03-01T03:45:05.523Z,0.00
2018-03-01T03:46:05.527Z,0.00
2018-03-01T03:47:05.544Z,0.00
2018-03-01T03:48:05.551Z,0.00
2018-03-01T03:49:05.554Z,0.00
2018-03-01T03:50:05.565Z,0.00
2018-03-01T03:51:05.580Z,0.00
2018-03-01T03:52:05.579Z,0.00
2018-03-01T03:53:05.608Z,0.00
2018-03-01T03:54:05.577Z,0.00
2018-03-01T03:55:05.601Z,0.00
2018-03-01T03:56:05.587Z,0.00
2018-03-01T03:57:05.596Z,0.00
2018-03-01T03:58:05.603Z,0.00
2018-03-01T03:59:05.633Z,0.00
2018-03-01T04:00:05.631Z,0.00
2018-03-01T04:01:05.613Z,0.00
2018-03-01T04:02:05.642Z,0.00
2018-03-01T04:03:05.657Z,0.00
2018-03-01T04:04:05.648Z,0.00
2018-03-01T04:05:05.647Z,0.00
2018-03-01T04:06:05.662Z,0.00
2018-03-01T04:07:05.656Z,0.00
2018-03-01T04:08:05.677Z,0.00
2018-03-01T04:09:05.675Z,0.00
2018-03-01T04:10:05.702Z,0.00
2018-03-01T04:11:05.692Z,0.00
2018-03-01T04:12:05.692Z,0.00
2018-03-01T04:13:05.697Z,0.00
2018-03-01T04:14:05.735Z,0.00
2018-03-01T04:15:05.780Z,0.00
2018-03-01T04:16:05.713Z,0.00
2018-03-01T04:17:05.714Z,0.00
2018-03-01T04:18:05.730Z,0.00
2018-03-01T04:19:05.743Z,0.00
2018-03-01T04:20:05.750Z,0.00
2018-03-01T04:21:05.764Z,0.00
2018-03-01T04:22:05.749Z,0.00
2018-03-01T04:23:05.754Z,0.00
2018-03-01T04:24:05.767Z,0.00
2018-03-01T04:25:05.793Z,0.00
2018-03-01T04:26:05.787Z,0.00
2018-03-01T04:27:05.785Z,0.00
2018-03-01T04:28:05.865Z,0.00
2018-03-01T04:29:05.842Z,0.00
2018-03-01T04:30:05.806Z,0.00
2018-03-01T04:31:05.820Z,0.00
2018-03-01T04:32:05.838Z,0.00
2018-03-01T04:33:05.840Z,0.00
2018-03-01T04:34:05.849Z,0.00
2018-03-01T04:35:05.835Z,0.00
2018-03-01T04:36:05.836Z,0.00
2018-03-01T04:37:05.869Z,0.00
2018-03-01T04:38:05.855Z,0.00
2018-03-01T04:39:05.853Z,0.00
2018-03-01T04:40:05.937Z,0.00
2018-03-01T04:41:05.869Z,0.00
2018-03-01T04:42:05.900Z,0.00
2018-03-01T04:43:05.882Z,0.00
2018-03-01T04:44:05.893Z,0.00
2018-03-01T04:45:05.896Z,0.00
2018-03-01T04:46:05.910Z,0.00
2018-03-01T04:47:05.908Z,0.00
2018-03-01T04:48:05.946Z,0.00
2018-03-01T04:49:05.935Z,0.00
2018-03-01T04:50:05.946Z,0.00
2018-03-01T04:51:05.939Z,0.00
2018-03-01T04:52:05.956Z,0.00
2018-03-01T04:53:05.955Z,0.00
2018-03-01T04:54:05.955Z,0.00
2018-03-01T04:55:06.007Z,0.00
2018-03-01T04:56:05.976Z,0.00
2018-03-01T04:57:05.996Z,0.00
2018-03-01T04:58:05.978Z,0.00
2018-03-01T04:59:05.978Z,0.00
2018-03-01T05:00:05.995Z,0.00
2018-03-01T05:01:05.998Z,0.00
2018-03-01T05:02:06.020Z,0.00
2018-03-01T05:03:06.031Z,0.00
2018-03-01T05:04:06.048Z,0.00
2018-03-01T05:05:06.016Z,0.00
2018-03-01T05:06:06.059Z,0.00
2018-03-01T05:07:06.046Z,0.00
2018-03-01T05:08:06.102Z,0.00
2018-03-01T05:09:06.063Z,0.00
2018-03-01T05:10:06.053Z,0.00
2018-03-01T05:11:06.061Z,0.00
2018-03-01T05:12:06.135Z,0.00
2018-03-01T05:13:06.066Z,0.00
2018-03-01T05:14:06.077Z,0.00
2018-03-01T05:15:06.084Z,0.00
2018-03-01T05:16:06.089Z,0.00
2018-03-01T05:17:06.094Z,0.00
2018-03-01T05:18:06.101Z,0.00
2018-03-01T05:19:06.128Z,0.00
2018-03-01T05:20:06.163Z,0.00
2018-03-01T05:21:06.135Z,0.00
2018-03-01T05:22:06.121Z,0.00
2018-03-01T05:23:06.126Z,0.00
2018-03-01T05:24:06.212Z,0.00
2018-03-01T05:25:06.154Z,0.00
2018-03-01T05:26:06.172Z,4.00
2018-03-01T05:27:06.178Z,4.00
2018-03-01T05:28:06.229Z,4.00
2018-03-01T05:29:06.166Z,0.00
2018-03-01T05:30:06.180Z,0.00
2018-03-01T05:31:06.182Z,4.00
2018-03-01T05:32:06.196Z,4.00
2018-03-01T05:33:06.201Z,0.00
2018-03-01T05:34:06.213Z,4.00
2018-03-01T05:35:06.216Z,4.00
2018-03-01T05:36:06.207Z,4.00
2018-03-01T05:37:06.230Z,4.00
2018-03-01T05:38:06.275Z,8.00
2018-03-01T05:39:06.224Z,8.00
2018-03-01T05:40:06.238Z,8.00
2018-03-01T05:41:06.238Z,8.00
2018-03-01T05:42:06.243Z,12.00
2018-03-01T05:43:06.286Z,12.00
2018-03-01T05:44:06.282Z,16.00
2018-03-01T05:45:06.268Z,16.00
2018-03-01T05:46:06.272Z,20.00
2018-03-01T05:47:06.338Z,20.00
2018-03-01T05:48:06.318Z,24.00
2018-03-01T05:49:06.285Z,32.00
2018-03-01T05:50:06.328Z,36.00
2018-03-01T05:51:06.346Z,44.00
2018-03-01T05:52:06.301Z,52.00
2018-03-01T05:53:06.312Z,56.00
2018-03-01T05:54:06.354Z,68.00
2018-03-01T05:55:06.334Z,84.00
2018-03-01T05:56:06.347Z,96.00
2018-03-01T05:57:06.344Z,112.00
2018-03-01T05:58:06.347Z,128.00
2018-03-01T05:59:06.357Z,152.00
2018-03-01T06:00:06.349Z,172.00
2018-03-01T06:01:06.368Z,196.00
2018-03-01T06:02:06.370Z,220.00
2018-03-01T06:03:06.374Z,248.00
2018-03-01T06:04:06.389Z,280.00
2018-03-01T06:05:06.407Z,308.00
2018-03-01T06:06:06.399Z,336.00
2018-03-01T06:07:06.395Z,372.00
2018-03-01T06:08:06.403Z,408.00
2018-03-01T06:09:06.423Z,448.00
2018-03-01T06:10:06.432Z,488.00
2018-03-01T06:11:06.435Z,536.00
2018-03-01T06:12:06.451Z,584.00
2018-03-01T06:13:06.436Z,636.00
2018-03-01T06:14:06.449Z,696.00
2018-03-01T06:15:06.449Z,752.00
2018-03-01T06:16:06.457Z,820.00
2018-03-01T06:17:06.496Z,888.00
2018-03-01T06:18:06.474Z,960.00
2018-03-01T06:19:06.479Z,1032.00
2018-03-01T06:20:06.492Z,1108.00
2018-03-01T06:21:06.482Z,1188.00
2018-03-01T06:22:06.506Z,1272.00
2018-03-01T06:23:06.504Z,1356.00
2018-03-01T06:24:06.524Z,1436.00
2018-03-01T06:25:06.522Z,1528.00
2018-03-01T06:26:06.516Z,1608.00
2018-03-01T06:27:06.523Z,1660.00
2018-03-01T06:28:06.552Z,1696.00
2018-03-01T06:29:06.532Z,1768.00
2018-03-01T06:30:06.556Z,1868.00
2018-03-01T06:31:06.561Z,2004.00
2018-03-01T06:32:06.549Z,2152.00
2018-03-01T06:33:06.570Z,2324.00
2018-03-01T06:34:06.562Z,2564.00
2018-03-01T06:35:06.568Z,2740.00
2018-03-01T06:36:06.609Z,2804.00
2018-03-01T06:37:06.639Z,2848.00
2018-03-01T06:38:06.591Z,2936.00
2018-03-01T06:39:06.598Z,3076.00
2018-03-01T06:40:06.601Z,3236.00
2018-03-01T06:41:06.615Z,3424.00
2018-03-01T06:42:06.619Z,3588.00
2018-03-01T06:43:06.640Z,3652.00
2018-03-01T06:44:06.628Z,3760.00
2018-03-01T06:45:06.652Z,3880.00
2018-03-01T06:46:06.641Z,4244.00
2018-03-01T06:47:06.663Z,5408.00
2018-03-01T06:48:06.649Z,6964.00
2018-03-01T06:49:06.704Z,7492.00
2018-03-01T06:50:06.666Z,4420.00
2018-03-01T06:51:06.684Z,3628.00
2018-03-01T06:52:06.706Z,3568.00
2018-03-01T06:53:06.687Z,3532.00
2018-03-01T06:54:06.699Z,3524.00
2018-03-01T06:55:06.705Z,3528.00
2018-03-01T06:56:06.746Z,3528.00
2018-03-01T06:57:06.708Z,3540.00
2018-03-01T06:58:06.732Z,3556.00
2018-03-01T06:59:06.728Z,3596.00
2018-03-01T07:00:06.747Z,3652.00
2018-03-01T07:01:06.738Z,3720.00
2018-03-01T07:02:06.772Z,3804.00
2018-03-01T07:03:06.752Z,3920.00
2018-03-01T07:04:06.769Z,4068.00
2018-03-01T07:05:06.790Z,4264.00
2018-03-01T07:06:06.783Z,4496.00
2018-03-01T07:07:06.792Z,4724.00
2018-03-01T07:08:06.787Z,4916.00
2018-03-01T07:09:06.803Z,5164.00
2018-03-01T07:10:06.805Z,5564.00
2018-03-01T07:11:06.829Z,5912.00
2018-03-01T07:12:06.857Z,6584.00
2018-03-01T07:13:06.829Z,7164.00
2018-03-01T07:14:06.837Z,8512.00
2018-03-01T07:15:06.845Z,8952.00
2018-03-01T07:16:06.875Z,8572.00
2018-03-01T07:17:06.883Z,12072.00
2018-03-01T07:18:06.876Z,11200.00
2018-03-01T07:19:06.865Z,10308.00
2018-03-01T07:20:06.883Z,11180.00
2018-03-01T07:21:06.899Z,9272.00
2018-03-01T07:22:06.887Z,8368.00
2018-03-01T07:23:07.010Z,8068.00
2018-03-01T07:24:06.903Z,8604.00
2018-03-01T07:25:06.913Z,7872.00
2018-03-01T07:26:06.918Z,7712.00
2018-03-01T07:27:06.925Z,8228.00
2018-03-01T07:28:06.937Z,20736.00
2018-03-01T07:29:06.998Z,21632.00
2018-03-01T07:30:06.954Z,20928.00
2018-03-01T07:31:06.960Z,18112.00
2018-03-01T07:32:06.971Z,17216.00
2018-03-01T07:33:06.975Z,19200.00
2018-03-01T07:34:07.071Z,18720.00
2018-03-01T07:35:06.997Z,17440.00
2018-03-01T07:36:07.016Z,16992.00
2018-03-01T07:37:07.022Z,14496.00
2018-03-01T07:38:07.026Z,17696.00
2018-03-01T07:39:07.044Z,19456.00
2018-03-01T07:40:07.075Z,19968.00
2018-03-01T07:41:07.055Z,18976.00
2018-03-01T07:42:07.070Z,13736.00
2018-03-01T07:43:07.070Z,10224.00
2018-03-01T07:44:07.080Z,11560.00
2018-03-01T07:45:07.091Z,13276.00
2018-03-01T07:46:07.164Z,12588.00
2018-03-01T07:47:07.121Z,11216.00
2018-03-01T07:48:07.117Z,10144.00
2018-03-01T07:49:07.153Z,9928.00
2018-03-01T07:50:07.153Z,10208.00
2018-03-01T07:51:07.157Z,10016.00
2018-03-01T07:52:07.177Z,10168.00
2018-03-01T07:53:07.180Z,10048.00
2018-03-01T07:54:07.201Z,11344.00
2018-03-01T07:55:07.222Z,11700.00
2018-03-01T07:56:07.203Z,12452.00
2018-03-01T07:57:07.210Z,15488.00
2018-03-01T07:58:07.231Z,18272.00
2018-03-01T07:59:07.250Z,20576.00
2018-03-01T08:00:07.236Z,23136.00
2018-03-01T08:01:07.251Z,23232.00
2018-03-01T08:02:07.257Z,24064.00
2018-03-01T08:03:07.264Z,24320.00
2018-03-01T08:04:07.300Z,24192.00
2018-03-01T08:05:07.288Z,24352.00
2018-03-01T08:06:07.289Z,24800.00
2018-03-01T08:07:07.316Z,25600.00
2018-03-01T08:08:07.316Z,26016.00
2018-03-01T08:09:07.324Z,25664.00
2018-03-01T08:10:07.352Z,26112.00
2018-03-01T08:11:07.339Z,25984.00
2018-03-01T08:12:07.371Z,25504.00
2018-03-01T08:13:07.364Z,25088.00
2018-03-01T08:14:07.386Z,24512.00
2018-03-01T08:15:07.400Z,23872.00
2018-03-01T08:16:07.408Z,23392.00
2018-03-01T08:17:07.412Z,23328.00
2018-03-01T08:18:07.430Z,23424.00
2018-03-01T08:19:07.438Z,23168.00
2018-03-01T08:20:07.458Z,23648.00
2018-03-01T08:21:07.484Z,24608.00
2018-03-01T08:22:07.473Z,24672.00
2018-03-01T08:23:07.523Z,24384.00
2018-03-01T08:24:07.513Z,24064.00
2018-03-01T08:25:07.528Z,24576.00
2018-03-01T08:26:07.544Z,25024.00
2018-03-01T08:27:07.544Z,25600.00
2018-03-01T08:28:07.548Z,25376.00
2018-03-01T08:29:07.582Z,26464.00
2018-03-01T08:30:07.572Z,27072.00
2018-03-01T08:31:07.591Z,27072.00
2018-03-01T08:32:07.610Z,26368.00
2018-03-01T08:33:07.611Z,26400.00
2018-03-01T08:34:07.648Z,25760.00
2018-03-01T08:35:07.673Z,25504.00
2018-03-01T08:36:07.644Z,25376.00
2018-03-01T08:37:07.668Z,25664.00
2018-03-01T08:38:07.702Z,24736.00
2018-03-01T08:39:07.704Z,15180.00
2018-03-01T08:40:07.782Z,7960.00
2018-03-01T08:41:07.702Z,7756.00
2018-03-01T08:42:07.724Z,7748.00
2018-03-01T08:43:07.730Z,7728.00
2018-03-01T08:44:07.743Z,7640.00
2018-03-01T08:45:07.777Z,7572.00
2018-03-01T08:46:07.835Z,7664.00
2018-03-01T08:47:07.803Z,7664.00
2018-03-01T08:48:07.803Z,7624.00
2018-03-01T08:49:07.818Z,7668.00
2018-03-01T08:50:07.834Z,7680.00
2018-03-01T08:51:07.884Z,7660.00
2018-03-01T08:52:07.824Z,7656.00
2018-03-01T08:53:07.876Z,7560.00
2018-03-01T08:54:07.856Z,7660.00
2018-03-01T08:55:07.880Z,7656.00
2018-03-01T08:56:07.860Z,7656.00
2018-03-01T08:57:07.873Z,7616.00
2018-03-01T08:58:07.905Z,7640.00
2018-03-01T08:59:07.944Z,7624.00
2018-03-01T09:00:07.969Z,7628.00
2018-03-01T09:01:07.911Z,7596.00
2018-03-01T09:02:07.919Z,7552.00
2018-03-01T09:03:07.931Z,7536.00
2018-03-01T09:04:07.936Z,7524.00
2018-03-01T09:05:07.947Z,7528.00
2018-03-01T09:06:07.976Z,7516.00
2018-03-01T09:07:07.962Z,7516.00
2018-03-01T09:08:07.971Z,7528.00
2018-03-01T09:09:07.981Z,7512.00
2018-03-01T09:10:07.999Z,7496.00
2018-03-01T09:11:08.017Z,7464.00
2018-03-01T09:12:08.022Z,7528.00
2018-03-01T09:13:08.070Z,7528.00
2018-03-01T09:14:08.031Z,7564.00
2018-03-01T09:15:08.091Z,7564.00
2018-03-01T09:16:08.039Z,7544.00
2018-03-01T09:17:08.048Z,7516.00
2018-03-01T09:18:08.097Z,7472.00
2018-03-01T09:19:08.072Z,7468.00
2018-03-01T09:20:08.076Z,7444.00
2018-03-01T09:21:08.093Z,7436.00
2018-03-01T09:22:08.099Z,7460.00
2018-03-01T09:23:08.101Z,7448.00
2018-03-01T09:24:08.116Z,7428.00
2018-03-01T09:25:08.132Z,7412.00
2018-03-01T09:26:08.125Z,7388.00
2018-03-01T09:27:08.163Z,7352.00
2018-03-01T09:28:08.159Z,7396.00
2018-03-01T09:29:08.166Z,7416.00
2018-03-01T09:30:08.168Z,7432.00
2018-03-01T09:31:08.169Z,7428.00
2018-03-01T09:32:08.181Z,7388.00
2018-03-01T09:33:08.199Z,7380.00
2018-03-01T09:34:08.223Z,7380.00
2018-03-01T09:35:08.226Z,7380.00
2018-03-01T09:36:08.235Z,7364.00
2018-03-01T09:37:08.266Z,7376.00
2018-03-01T09:38:08.239Z,7384.00
2018-03-01T09:39:08.238Z,7360.00
2018-03-01T09:40:08.262Z,7332.00
2018-03-01T09:41:08.254Z,7328.00
2018-03-01T09:42:08.269Z,7348.00
2018-03-01T09:43:08.322Z,7316.00
2018-03-01T09:44:08.282Z,7292.00
2018-03-01T09:45:08.301Z,7304.00
2018-03-01T09:46:08.311Z,7292.00
2018-03-01T09:47:08.315Z,7304.00
2018-03-01T09:48:08.347Z,7288.00
2018-03-01T09:49:08.342Z,7276.00
2018-03-01T09:50:08.343Z,7264.00
2018-03-01T09:51:08.346Z,7224.00
2018-03-01T09:52:08.356Z,7240.00
2018-03-01T09:53:08.372Z,7196.00
2018-03-01T09:54:08.369Z,7200.00
2018-03-01T09:55:08.376Z,7148.00
2018-03-01T09:56:08.404Z,7128.00
2018-03-01T09:57:08.406Z,7148.00
2018-03-01T09:58:08.436Z,7164.00
2018-03-01T09:59:08.413Z,7172.00
2018-03-01T10:00:08.465Z,7140.00
2018-03-01T10:01:08.438Z,7136.00
2018-03-01T10:02:08.447Z,7132.00
2018-03-01T10:03:08.461Z,7116.00
2018-03-01T10:04:08.461Z,7152.00
2018-03-01T10:05:08.523Z,7168.00
2018-03-01T10:06:08.484Z,7156.00
2018-03-01T10:07:08.538Z,7172.00
2018-03-01T10:08:08.520Z,7168.00
2018-03-01T10:09:08.506Z,7164.00
2018-03-01T10:10:08.550Z,7176.00
2018-03-01T10:11:08.525Z,7144.00
2018-03-01T10:12:08.552Z,7132.00
2018-03-01T10:13:08.544Z,7140.00
2018-03-01T10:14:08.547Z,7132.00
2018-03-01T10:15:08.560Z,7112.00
2018-03-01T10:16:08.566Z,7088.00
2018-03-01T10:17:08.579Z,7048.00
2018-03-01T10:18:08.657Z,7052.00
2018-03-01T10:19:08.609Z,7056.00
2018-03-01T10:20:08.601Z,7072.00
2018-03-01T10:21:08.623Z,7076.00
2018-03-01T10:22:08.618Z,7068.00
2018-03-01T10:23:08.633Z,7052.00
2018-03-01T10:24:08.636Z,7020.00
2018-03-01T10:25:08.752Z,7000.00
2018-03-01T10:26:08.673Z,7020.00
2018-03-01T10:27:08.684Z,7032.00
2018-03-01T10:28:08.689Z,7016.00
2018-03-01T10:29:08.695Z,7040.00
2018-03-01T10:30:08.690Z,7008.00
2018-03-01T10:31:08.709Z,7020.00
2018-03-01T10:32:08.717Z,7008.00
2018-03-01T10:33:08.736Z,6992.00
2018-03-01T10:34:08.751Z,6936.00
2018-03-01T10:35:08.771Z,6968.00
2018-03-01T10:36:08.810Z,6956.00
2018-03-01T10:37:08.805Z,6944.00
2018-03-01T10:38:08.801Z,6944.00
2018-03-01T10:39:08.783Z,6936.00
2018-03-01T10:40:08.803Z,6936.00
2018-03-01T10:41:08.810Z,6948.00
2018-03-01T10:42:08.827Z,6944.00
2018-03-01T10:43:08.825Z,6952.00
2018-03-01T10:44:08.848Z,6920.00
2018-03-01T10:45:08.834Z,6920.00
2018-03-01T10:46:08.858Z,6932.00
2018-03-01T10:47:08.864Z,6916.00
2018-03-01T10:48:08.888Z,6904.00
2018-03-01T10:49:08.884Z,6896.00
2018-03-01T10:50:08.882Z,6908.00
2018-03-01T10:51:08.890Z,6908.00
2018-03-01T10:52:08.905Z,6896.00
2018-03-01T10:53:08.934Z,6900.00
2018-03-01T10:54:08.930Z,6772.00
2018-03-01T10:55:08.930Z,6724.00
2018-03-01T10:56:08.934Z,6872.00
2018-03-01T10:57:08.979Z,6820.00
2018-03-01T10:58:08.964Z,6820.00
2018-03-01T10:59:08.980Z,6908.00
2018-03-01T11:00:08.994Z,6948.00
2018-03-01T11:01:08.982Z,6952.00
2018-03-01T11:02:08.991Z,6932.00
2018-03-01T11:03:09.009Z,6948.00
2018-03-01T11:04:09.059Z,6916.00
2018-03-01T11:05:09.033Z,6928.00
2018-03-01T11:06:09.136Z,7012.00
2018-03-01T11:07:09.087Z,7044.00
2018-03-01T11:08:09.049Z,7024.00
2018-03-01T11:09:09.097Z,7012.00
2018-03-01T11:10:09.094Z,7000.00
2018-03-01T11:11:09.111Z,6980.00
2018-03-01T11:12:09.100Z,6976.00
2018-03-01T11:13:09.146Z,6796.00
2018-03-01T11:14:09.104Z,6760.00
2018-03-01T11:15:09.139Z,7060.00
2018-03-01T11:16:09.131Z,6976.00
2018-03-01T11:17:09.130Z,6896.00
2018-03-01T11:18:09.147Z,7008.00
2018-03-01T11:19:09.179Z,7068.00
2018-03-01T11:20:09.170Z,7076.00
2018-03-01T11:21:09.176Z,6996.00
2018-03-01T11:22:09.223Z,6868.00
2018-03-01T11:23:09.311Z,6792.00
2018-03-01T11:24:09.207Z,6792.00
2018-03-01T11:25:09.217Z,6876.00
2018-03-01T11:26:09.219Z,6956.00
2018-03-01T11:27:09.229Z,6800.00
2018-03-01T11:28:09.243Z,6928.00
2018-03-01T11:29:09.258Z,6888.00
2018-03-01T11:30:09.253Z,6856.00
2018-03-01T11:31:09.284Z,6832.00
2018-03-01T11:32:09.291Z,6800.00
2018-03-01T11:33:09.291Z,6768.00
2018-03-01T11:34:09.368Z,6744.00
2018-03-01T11:35:09.323Z,6744.00
2018-03-01T11:36:09.325Z,6740.00
2018-03-01T11:37:09.334Z,6724.00
2018-03-01T11:38:09.357Z,6720.00
2018-03-01T11:39:09.389Z,6720.00
2018-03-01T11:40:09.362Z,6724.00
2018-03-01T11:41:09.454Z,6692.00
2018-03-01T11:42:09.410Z,6684.00
2018-03-01T11:43:09.386Z,6664.00
2018-03-01T11:44:09.391Z,6640.00
2018-03-01T11:45:09.414Z,6616.00
2018-03-01T11:46:09.451Z,6604.00
2018-03-01T11:47:09.427Z,6592.00
2018-03-01T11:48:09.484Z,6572.00
2018-03-01T11:49:09.497Z,6552.00
2018-03-01T11:50:09.444Z,6564.00
2018-03-01T11:51:09.485Z,6548.00
2018-03-01T11:52:09.468Z,6516.00
2018-03-01T11:53:09.511Z,6456.00
2018-03-01T11:54:09.500Z,6432.00
2018-03-01T11:55:09.523Z,6476.00
2018-03-01T11:56:09.523Z,6504.00
2018-03-01T11:57:09.535Z,6492.00
2018-03-01T11:58:09.531Z,6556.00
2018-03-01T11:59:09.611Z,6564.00
2018-03-01T12:00:09.608Z,6208.00
2018-03-01T12:01:09.555Z,6076.00
2018-03-01T12:02:09.605Z,6132.00
2018-03-01T12:03:09.588Z,5992.00
2018-03-01T12:04:09.596Z,6104.00
2018-03-01T12:05:09.640Z,6412.00
2018-03-01T12:06:09.616Z,6512.00
2018-03-01T12:07:09.641Z,6484.00
2018-03-01T12:08:09.639Z,6476.00
2018-03-01T12:09:09.685Z,6484.00
2018-03-01T12:10:09.673Z,6488.00
2018-03-01T12:11:09.674Z,6472.00
2018-03-01T12:12:09.682Z,6452.00
2018-03-01T12:13:09.663Z,6448.00
2018-03-01T12:14:09.709Z,6456.00
2018-03-01T12:15:09.702Z,6432.00
2018-03-01T12:16:09.722Z,6428.00
2018-03-01T12:17:09.730Z,6428.00
2018-03-01T12:18:09.748Z,6408.00
2018-03-01T12:19:09.744Z,6396.00
2018-03-01T12:20:09.736Z,6344.00
2018-03-01T12:21:09.777Z,6288.00
2018-03-01T12:22:09.746Z,6252.00
2018-03-01T12:23:09.782Z,6204.00
2018-03-01T12:24:09.838Z,5976.00
2018-03-01T12:25:09.779Z,5776.00
2018-03-01T12:26:09.802Z,5972.00
2018-03-01T12:27:09.797Z,6052.00
2018-03-01T12:28:09.813Z,6160.00
2018-03-01T12:29:09.829Z,6276.00
2018-03-01T12:30:09.832Z,6324.00
2018-03-01T12:31:09.834Z,6232.00
2018-03-01T12:32:09.848Z,6268.00
2018-03-01T12:33:09.864Z,6384.00
2018-03-01T12:34:09.883Z,6372.00
2018-03-01T12:35:09.894Z,6356.00
2018-03-01T12:36:09.883Z,6344.00